Time;durP1;ratioP1;P1;durP2;ratioP2;P2;SDS_P1;SDS_P2;PMS_P1;PMS_P2;Temp;Humidity;BMP_temperature;BMP_pressure;BME280_temperature;BME280_humidity;BME280_pressure;Samples;Min_cycle;Max_cycle;Signal;HPM_P1;HPM_P2
2021/07/15 02:46:10;;;;;;;2.47;1.55;;;19.40;82.60;;;;;;5305613;24;20063;-78
2021/07/15 02:48:36;;;;;;;1.60;1.40;;;19.40;82.40;;;;;;4747182;30;20036;-78
2021/07/15 02:51:02;;;;;;;4.10;2.05;;;19.40;82.60;;;;;;4747222;30;20055;-78
2021/07/15 02:53:28;;;;;;;3.90;1.90;;;19.30;82.60;;;;;;4771534;30;20032;-79
2021/07/15 02:56:10;;;;;;;2.53;1.77;;;19.30;82.50;;;;;;4747228;30;20028;-79
2021/07/15 02:58:44;;;;;;;2.75;1.95;;;19.30;82.80;;;;;;4751788;30;20035;-78
2021/07/15 03:01:16;;;;;;;3.50;1.60;;;19.30;82.90;;;;;;4764776;30;20027;-78
2021/07/15 03:03:57;;;;;;;6.28;1.40;;;19.20;82.90;;;;;;4750222;30;20090;-78
2021/07/15 03:06:31;;;;;;;3.22;1.73;;;19.20;83.00;;;;;;4764858;30;20031;-79
2021/07/15 03:09:00;;;;;;;1.85;1.35;;;19.20;83.00;;;;;;4764648;30;20110;-78
2021/07/15 03:11:41;;;;;;;4.00;1.77;;;19.20;83.00;;;;;;4764892;30;20035;-78
2021/07/15 03:14:07;;;;;;;3.42;1.83;;;19.20;83.00;;;;;;4781032;30;20075;-78
2021/07/15 03:16:37;;;;;;;2.95;1.70;;;19.20;83.00;;;;;;4751849;30;20036;-78
2021/07/15 03:19:04;;;;;;;2.50;1.98;;;19.20;82.90;;;;;;4784633;30;20056;-78
2021/07/15 03:21:31;;;;;;;;;;;19.20;82.80;;;;;;4754076;30;20054;-78
2021/07/15 03:23:58;;;;;;;6.18;2.00;;;19.30;82.60;;;;;;4753844;30;20096;-78
2021/07/15 03:26:25;;;;;;;3.72;1.52;;;19.30;82.40;;;;;;4768721;30;20039;-78
2021/07/15 03:28:52;;;;;;;5.30;1.63;;;19.40;82.40;;;;;;4784369;30;20038;-78
2021/07/15 03:31:21;;;;;;;4.00;2.08;;;19.40;82.00;;;;;;4768690;30;20043;-78
2021/07/15 03:33:50;;;;;;;2.40;1.52;;;19.40;81.00;;;;;;4753542;30;20035;-78
2021/07/15 03:36:16;;;;;;;5.47;1.42;;;19.50;81.00;;;;;;4768380;30;20031;-78
2021/07/15 03:38:45;;;;;;;4.00;1.23;;;19.50;80.80;;;;;;4753458;30;20039;-78
2021/07/15 03:41:13;;;;;;;3.15;1.60;;;19.60;80.40;;;;;;4753319;30;20043;-78
2021/07/15 03:43:41;;;;;;;2.53;1.67;;;19.60;80.00;;;;;;4767951;30;20039;-78
2021/07/15 03:46:07;;;;;;;2.35;1.38;;;19.70;79.90;;;;;;4755091;30;20224;-78
2021/07/15 03:48:34;;;;;;;2.45;1.52;;;19.80;79.30;;;;;;4726894;30;20044;-77
2021/07/15 03:51:02;;;;;;;2.03;1.73;;;19.80;79.00;;;;;;4738428;30;20247;-78
2021/07/15 03:53:29;;;;;;;2.55;1.83;;;19.80;78.90;;;;;;4744908;30;20103;-78
2021/07/15 03:55:57;;;;;;;5.30;1.73;;;19.90;79.00;;;;;;4743438;30;20200;-78
2021/07/15 03:58:24;;;;;;;2.63;1.58;;;20.00;78.50;;;;;;4747290;30;20040;-78
2021/07/15 04:00:51;;;;;;;2.38;1.45;;;20.00;77.80;;;;;;4746780;30;20232;-78
2021/07/15 04:03:18;;;;;;;;;;;20.10;77.50;;;;;;4727228;30;20044;-78
2021/07/15 04:05:45;;;;;;;5.13;2.08;;;20.20;76.20;;;;;;4715430;30;19911;-78
2021/07/15 04:08:11;;;;;;;3.35;1.70;;;20.40;76.20;;;;;;4729444;30;20037;-78
2021/07/15 04:10:40;;;;;;;2.47;1.27;;;20.60;75.80;;;;;;4736643;30;20033;-79
2021/07/15 04:13:06;;;;;;;1.95;1.35;;;20.70;74.50;;;;;;4740382;30;20323;-78
2021/07/15 04:15:51;;;;;;;4.03;1.52;;;20.90;73.90;;;;;;4730887;30;20036;-79
2021/07/15 04:18:20;;;;;;;7.53;1.42;;;21.00;73.50;;;;;;4729381;30;20041;-78
2021/07/15 04:20:46;;;;;;;2.03;1.40;;;21.20;73.00;;;;;;4723449;30;20032;-79
2021/07/15 04:23:13;;;;;;;2.33;1.38;;;21.20;72.50;;;;;;4723750;30;20076;-78
2021/07/15 04:25:40;;;;;;;3.78;1.45;;;21.40;72.30;;;;;;4729266;30;20036;-78
2021/07/15 04:28:07;;;;;;;2.13;1.13;;;21.50;71.60;;;;;;4729122;30;20037;-78
2021/07/15 04:30:33;;;;;;;2.10;1.20;;;21.60;71.90;;;;;;4730744;30;20193;-78
2021/07/15 04:33:05;;;;;;;1.83;1.47;;;21.60;71.50;;;;;;4720293;30;20129;-79
2021/07/15 04:35:33;;;;;;;2.40;1.20;;;21.70;70.90;;;;;;4739061;30;20033;-79
2021/07/15 04:38:00;;;;;;;0.95;0.80;;;21.60;70.10;;;;;;4730145;30;20036;-79
2021/07/15 04:40:27;;;;;;;3.63;1.40;;;21.70;70.70;;;;;;4713159;30;20231;-78
2021/07/15 04:42:59;;;;;;;4.95;1.20;;;21.60;70.40;;;;;;4715813;30;20072;-77
2021/07/15 04:45:27;;;;;;;2.35;0.93;;;21.60;70.00;;;;;;4737126;30;20025;-77
2021/07/15 04:47:54;;;;;;;3.72;1.60;;;21.60;70.80;;;;;;4734199;30;20035;-78
2021/07/15 04:50:24;;;;;;;2.30;1.50;;;21.60;69.90;;;;;;4747984;30;20036;-77
2021/07/15 04:52:58;;;;;;;1.70;1.52;;;21.60;70.00;;;;;;4748382;30;20211;-77
2021/07/15 04:55:24;;;;;;;2.97;1.08;;;21.60;69.90;;;;;;4733764;30;20103;-78
2021/07/15 04:57:51;;;;;;;2.78;0.90;;;21.60;69.70;;;;;;4748647;30;20035;-77
2021/07/15 05:00:18;;;;;;;1.27;1.17;;;21.60;69.70;;;;;;4748085;30;20043;-77
2021/07/15 05:02:44;;;;;;;3.15;1.40;;;21.60;70.00;;;;;;4763555;30;20040;-77
2021/07/15 05:05:12;;;;;;;4.33;1.50;;;21.50;69.90;;;;;;4760790;30;20047;-77
2021/07/15 05:07:39;;;;;;;1.48;1.00;;;21.50;69.10;;;;;;4764055;30;20028;-77
2021/07/15 05:10:06;;;;;;;3.70;1.20;;;21.60;69.20;;;;;;4763570;30;20107;-77
2021/07/15 05:12:33;;;;;;;2.25;1.30;;;21.60;68.90;;;;;;4763296;30;20060;-77
2021/07/15 05:15:00;;;;;;;8.15;1.88;;;21.60;68.80;;;;;;4747532;30;20384;-77
2021/07/15 05:17:26;;;;;;;1.27;1.10;;;21.70;69.00;;;;;;4747207;30;20035;-77
2021/07/15 05:19:51;;;;;;;3.45;1.20;;;21.90;68.50;;;;;;4762757;30;20036;-78
2021/07/15 05:22:18;;;;;;;4.65;1.42;;;22.10;68.40;;;;;;4746915;30;20035;-77
2021/07/15 05:24:44;;;;;;;3.33;1.05;;;22.10;67.40;;;;;;4743634;30;20299;-77
2021/07/15 05:27:10;;;;;;;2.10;1.42;;;22.20;67.30;;;;;;4747400;30;20032;-77
2021/07/15 05:29:36;;;;;;;6.07;1.55;;;22.40;68.00;;;;;;4759173;30;20094;-78
2021/07/15 05:32:02;;;;;;;5.30;1.30;;;22.60;67.20;;;;;;4746800;30;20032;-78
2021/07/15 05:34:28;;;;;;;3.33;1.43;;;23.10;65.50;;;;;;4746418;30;20036;-77
2021/07/15 05:36:54;;;;;;;2.72;1.10;;;23.80;64.70;;;;;;4747574;30;20045;-78
2021/07/15 05:39:20;;;;;;;3.53;1.17;;;24.70;61.10;;;;;;4747610;30;20055;-77
2021/07/15 05:41:45;;;;;;;4.65;1.17;;;25.50;59.20;;;;;;4746557;30;20055;-76
2021/07/15 05:44:12;;;;;;;4.22;1.35;;;26.10;57.30;;;;;;4762418;30;20035;-77
2021/07/15 05:46:37;;;;;;;2.20;1.10;;;26.40;56.20;;;;;;4746178;30;20059;-77
2021/07/15 05:49:03;;;;;;;2.45;1.10;;;26.90;55.80;;;;;;4761686;30;20282;-77
2021/07/15 05:51:29;;;;;;;2.70;1.20;;;27.40;53.30;;;;;;4746313;30;20050;-76
2021/07/15 05:53:55;;;;;;;3.42;1.88;;;27.90;52.30;;;;;;4731999;30;20031;-76
2021/07/15 05:56:21;;;;;;;3.00;1.52;;;28.00;51.40;;;;;;4762394;30;20035;-76
2021/07/15 05:58:46;;;;;;;1.60;1.08;;;28.10;50.80;;;;;;4746345;30;20031;-77
2021/07/15 06:01:12;;;;;;;2.08;1.25;;;27.80;50.80;;;;;;4762435;30;20047;-77
2021/07/15 06:03:38;;;;;;;2.13;1.30;;;27.80;51.10;;;;;;4762342;30;20059;-76
2021/07/15 06:06:04;;;;;;;1.57;1.00;;;27.80;51.10;;;;;;4732030;30;20036;-77
2021/07/15 06:08:30;;;;;;;3.88;1.13;;;27.90;50.90;;;;;;4762388;30;20043;-76
2021/07/15 06:10:56;;;;;;;6.63;1.20;;;27.60;50.70;;;;;;4746879;30;20024;-77
2021/07/15 06:13:22;;;;;;;1.90;1.15;;;27.10;51.80;;;;;;4747298;30;20059;-77
2021/07/15 06:15:47;;;;;;;2.10;1.20;;;26.80;52.60;;;;;;4732584;30;20362;-76
2021/07/15 06:18:13;;;;;;;4.70;1.30;;;26.60;53.10;;;;;;4732147;30;20063;-76
2021/07/15 06:20:39;;;;;;;1.77;1.30;;;26.70;54.20;;;;;;4762416;30;20373;-76
2021/07/15 06:23:05;;;;;;;2.50;1.00;;;27.00;53.70;;;;;;4731720;30;20035;-76
2021/07/15 06:25:31;;;;;;;4.80;1.50;;;27.10;52.80;;;;;;4759504;30;20258;-76
2021/07/15 06:27:57;;;;;;;2.05;0.98;;;27.20;52.60;;;;;;4746956;30;20054;-77
2021/07/15 06:30:23;;;;;;;3.90;1.30;;;27.20;52.70;;;;;;4762683;30;20218;-77
2021/07/15 06:32:49;;;;;;;2.03;1.10;;;27.20;52.80;;;;;;4747136;30;20035;-76
2021/07/15 06:35:21;;;;;;;2.40;1.00;;;27.30;53.20;;;;;;4746659;30;20095;-77
2021/07/15 06:37:51;;;;;;;3.90;0.98;;;27.30;52.10;;;;;;4762183;30;20082;-77
2021/07/15 06:40:18;;;;;;;2.88;1.17;;;27.20;52.80;;;;;;4762082;30;20071;-78
2021/07/15 06:42:44;;;;;;;;;;;27.10;53.60;;;;;;4762617;30;20032;-77
2021/07/15 06:45:11;;;;;;;3.03;1.17;;;27.20;53.10;;;;;;4746464;30;19917;-77
2021/07/15 06:47:37;;;;;;;1.83;1.02;;;27.20;53.10;;;;;;4745551;30;20357;-77
2021/07/15 06:50:09;;;;;;;3.97;1.90;;;27.30;53.30;;;;;;4746161;30;20028;-77
2021/07/15 06:52:35;;;;;;;3.22;1.20;;;27.30;51.40;;;;;;4746281;30;20032;-76
2021/07/15 06:55:02;;;;;;;5.88;1.35;;;27.00;51.80;;;;;;4731720;30;20294;-77
2021/07/15 06:57:28;;;;;;;;;;;26.90;52.80;;;;;;4729278;30;20326;-77
2021/07/15 06:59:54;;;;;;;4.15;1.20;;;26.90;53.90;;;;;;4744781;30;19981;-77
2021/07/15 07:02:20;;;;;;;1.60;1.17;;;27.00;53.20;;;;;;4731755;30;20068;-76
2021/07/15 07:04:46;;;;;;;1.92;1.15;;;27.00;53.70;;;;;;4732116;30;20644;-77
2021/07/15 07:07:12;;;;;;;3.72;1.40;;;27.00;53.40;;;;;;4762185;30;20087;-77
2021/07/15 07:09:38;;;;;;;1.58;1.20;;;27.10;53.70;;;;;;4746756;30;20049;-77
2021/07/15 07:12:04;;;;;;;3.88;1.10;;;27.00;53.30;;;;;;4762690;30;20028;-77
2021/07/15 07:14:30;;;;;;;2.22;1.17;;;27.10;53.20;;;;;;4747841;30;20043;-80
2021/07/15 07:16:55;;;;;;;1.23;1.02;;;27.30;53.10;;;;;;4731702;30;20032;-80
2021/07/15 07:19:21;;;;;;;2.17;1.33;;;27.20;52.70;;;;;;4743834;30;20036;-81
2021/07/15 07:21:47;;;;;;;4.55;1.30;;;27.10;52.10;;;;;;4734243;30;20052;-79
2021/07/15 07:24:13;;;;;;;3.53;1.15;;;26.90;52.80;;;;;;4734300;30;20081;-79
2021/07/15 07:26:39;;;;;;;1.48;1.20;;;26.80;53.70;;;;;;4737708;30;20103;-79
2021/07/15 07:29:06;;;;;;;3.15;1.35;;;26.70;52.80;;;;;;4752126;30;20347;-84
2021/07/15 07:31:32;;;;;;;2.50;1.33;;;26.70;53.50;;;;;;4737846;30;20038;-81
2021/07/15 07:33:58;;;;;;;3.20;1.20;;;27.00;53.10;;;;;;4768368;30;20047;-81
2021/07/15 07:36:24;;;;;;;4.85;1.30;;;27.10;52.90;;;;;;4769066;30;20024;-81
2021/07/15 07:38:50;;;;;;;2.65;1.20;;;27.10;53.10;;;;;;4738752;30;20054;-81
2021/07/15 07:41:15;;;;;;;3.90;1.25;;;26.90;53.70;;;;;;4768588;30;20028;-81
2021/07/15 07:43:41;;;;;;;3.10;1.58;;;26.90;54.00;;;;;;4737323;30;20032;-81
2021/07/15 07:46:07;;;;;;;3.70;1.10;;;26.90;54.20;;;;;;4734695;30;20045;-80
2021/07/15 07:48:33;;;;;;;4.68;1.25;;;26.90;53.00;;;;;;4731679;30;20105;-80
2021/07/15 07:50:59;;;;;;;3.88;1.20;;;27.00;52.60;;;;;;4733823;30;20033;-81
2021/07/15 07:53:28;;;;;;;3.20;1.27;;;26.90;53.00;;;;;;4737559;30;20032;-80
2021/07/15 07:55:55;;;;;;;4.05;1.10;;;26.90;54.40;;;;;;4744416;30;20040;-80
2021/07/15 07:58:22;;;;;;;3.30;1.60;;;27.00;53.20;;;;;;4727443;30;20040;-80
2021/07/15 08:00:48;;;;;;;3.53;1.33;;;27.10;53.30;;;;;;4733109;30;20104;-80
2021/07/15 08:03:17;;;;;;;;;;;27.30;52.60;;;;;;4741696;30;20089;-80
2021/07/15 08:05:44;;;;;;;3.78;1.40;;;27.20;52.90;;;;;;4754652;30;20197;-81
2021/07/15 08:08:10;;;;;;;2.50;1.40;;;27.10;53.10;;;;;;4726531;30;20032;-80
2021/07/15 08:10:36;;;;;;;5.75;1.00;;;27.10;53.20;;;;;;4748920;30;20041;-80
2021/07/15 08:13:02;;;;;;;1.87;1.00;;;27.00;53.60;;;;;;4750248;30;20028;-80
2021/07/15 08:15:28;;;;;;;1.90;1.13;;;27.10;51.70;;;;;;4742423;30;20040;-80
2021/07/15 08:17:54;;;;;;;1.30;1.20;;;27.20;51.20;;;;;;4738171;30;20033;-80
2021/07/15 08:20:20;;;;;;;6.30;1.27;;;27.30;52.00;;;;;;4729784;30;20071;-80
2021/07/15 08:22:45;;;;;;;5.80;1.17;;;27.40;51.70;;;;;;4732027;30;20134;-80
2021/07/15 08:25:14;;;;;;;5.38;1.00;;;27.60;52.70;;;;;;4728448;30;20029;-81
2021/07/15 08:27:40;;;;;;;1.13;1.00;;;27.70;50.20;;;;;;4733182;30;20051;-80
2021/07/15 08:30:07;;;;;;;;;;;27.90;50.10;;;;;;4746041;30;20073;-80
2021/07/15 08:32:33;;;;;;;1.85;0.90;;;27.80;49.50;;;;;;4742057;30;19926;-81
2021/07/15 08:34:59;;;;;;;1.47;1.07;;;27.60;48.60;;;;;;4735819;30;20037;-80
2021/07/15 08:37:25;;;;;;;2.33;1.40;;;27.60;49.50;;;;;;4726674;30;20071;-80
2021/07/15 08:39:50;;;;;;;9.38;1.73;;;27.60;49.30;;;;;;4730167;30;20037;-80
2021/07/15 08:42:18;;;;;;;1.98;1.00;;;27.70;49.50;;;;;;4739892;30;20044;-80
2021/07/15 08:44:45;;;;;;;2.30;1.20;;;27.70;50.00;;;;;;4746699;30;20032;-80
2021/07/15 08:47:13;;;;;;;;;;;27.90;50.60;;;;;;4728338;30;20061;-80
2021/07/15 08:49:39;;;;;;;3.85;1.00;;;28.20;49.40;;;;;;4726159;30;19910;-80
2021/07/15 08:52:06;;;;;;;4.20;1.40;;;28.30;49.00;;;;;;4717533;30;20100;-80
2021/07/15 08:54:48;;;;;;;2.50;1.40;;;28.50;50.80;;;;;;4741765;30;20064;-80
2021/07/15 08:57:15;;;;;;;2.08;1.30;;;28.60;50.50;;;;;;4733386;30;20036;-80
2021/07/15 08:59:41;;;;;;;2.15;1.08;;;28.50;49.80;;;;;;4735508;30;20025;-81
2021/07/15 09:02:15;;;;;;;2.13;1.13;;;28.30;49.30;;;;;;4719793;30;20033;-80
2021/07/15 09:04:41;;;;;;;1.85;1.05;;;28.20;48.70;;;;;;4731440;30;20029;-80
2021/07/15 09:07:07;;;;;;;1.43;0.73;;;28.10;49.20;;;;;;4744544;30;20036;-80
2021/07/15 09:09:33;;;;;;;6.77;1.33;;;28.20;50.70;;;;;;4725071;30;20025;-80
2021/07/15 09:11:59;;;;;;;2.00;1.07;;;28.20;49.70;;;;;;4737990;30;20041;-81
2021/07/15 09:14:24;;;;;;;2.47;1.20;;;28.30;50.00;;;;;;4722234;30;20052;-81
2021/07/15 09:16:52;;;;;;;1.85;0.80;;;28.50;50.00;;;;;;4739888;30;20036;-79
2021/07/15 09:19:20;;;;;;;3.05;1.33;;;28.90;48.30;;;;;;4726784;30;20375;-80
2021/07/15 09:21:45;;;;;;;3.40;1.25;;;29.20;49.10;;;;;;4726211;30;20039;-80
2021/07/15 09:24:40;;;;;;;1.87;1.20;;;29.30;46.80;;;;;;4725846;30;20036;-80
2021/07/15 09:27:22;;;;;;;3.85;1.30;;;29.20;48.50;;;;;;4744614;30;20041;-80
2021/07/15 09:30:14;;;;;;;2.45;1.20;;;29.30;46.00;;;;;;4739148;30;20088;-80
2021/07/15 09:32:50;;;;;;;3.75;0.98;;;29.20;46.20;;;;;;4746919;30;20036;-80
2021/07/15 09:35:34;;;;;;;3.97;1.00;;;29.40;47.20;;;;;;4752071;30;20035;-80
2021/07/15 09:38:07;;;;;;;1.88;1.08;;;29.50;45.30;;;;;;4718965;30;20033;-80
2021/07/15 09:40:52;;;;;;;1.42;1.20;;;29.70;46.90;;;;;;4734159;30;20060;-81
2021/07/15 09:43:25;;;;;;;1.90;1.25;;;29.80;47.40;;;;;;4720190;30;20041;-80
2021/07/15 09:46:14;;;;;;;4.20;1.20;;;29.70;46.80;;;;;;4744752;30;20048;-80
2021/07/15 09:48:46;;;;;;;3.78;0.98;;;29.70;45.10;;;;;;4735246;30;20048;-81
2021/07/15 09:51:15;;;;;;;2.20;1.23;;;29.70;45.90;;;;;;4751554;30;20028;-76
2021/07/15 09:53:41;;;;;;;1.65;1.00;;;29.90;48.10;;;;;;4731567;30;20465;-78
2021/07/15 09:56:08;;;;;;;1.57;1.10;;;30.20;45.60;;;;;;4742253;30;20032;-77
2021/07/15 09:58:36;;;;;;;1.20;0.95;;;30.20;45.50;;;;;;4741277;30;20068;-76
2021/07/15 10:01:16;;;;;;;2.45;1.30;;;30.00;45.80;;;;;;4741652;30;20032;-77
2021/07/15 10:03:49;;;;;;;2.88;1.08;;;29.80;45.60;;;;;;4744625;30;20230;-77
2021/07/15 10:06:16;;;;;;;2.47;1.20;;;29.60;46.00;;;;;;4761968;30;20024;-76
2021/07/15 10:08:44;;;;;;;3.33;1.27;;;29.60;46.70;;;;;;4761870;30;20260;-77
2021/07/15 10:11:15;;;;;;;1.52;1.20;;;29.70;46.50;;;;;;4731881;30;20039;-76
2021/07/15 10:13:43;;;;;;;2.10;1.35;;;29.70;46.70;;;;;;4762426;30;20036;-76
2021/07/15 10:16:09;;;;;;;2.88;0.95;;;29.60;46.20;;;;;;4746398;30;20036;-76
2021/07/15 10:18:45;;;;;;;2.53;1.33;;;29.30;46.50;;;;;;4731693;30;20077;-77
2021/07/15 10:21:14;;;;;;;1.42;0.90;;;29.30;48.10;;;;;;4740254;30;20203;-76
2021/07/15 10:23:48;;;;;;;4.10;1.35;;;29.40;48.90;;;;;;4746389;30;20074;-78
2021/07/15 10:26:14;;;;;;;2.42;1.13;;;29.60;47.50;;;;;;4730793;30;20032;-76
2021/07/15 10:28:46;;;;;;;3.20;1.17;;;29.70;46.50;;;;;;4746607;30;20035;-76
2021/07/15 10:31:13;;;;;;;1.10;0.80;;;30.00;46.20;;;;;;4746747;30;20057;-76
2021/07/15 10:33:41;;;;;;;2.22;1.00;;;30.10;45.50;;;;;;4762628;30;20048;-78
2021/07/15 10:36:07;;;;;;;3.95;1.20;;;30.10;44.60;;;;;;4732034;30;20036;-76
2021/07/15 10:38:45;;;;;;;1.90;1.40;;;30.00;46.50;;;;;;4746515;30;20024;-78
2021/07/15 10:41:13;;;;;;;3.05;0.90;;;30.10;46.70;;;;;;4727783;30;20111;-76
2021/07/15 10:43:40;;;;;;;2.53;1.20;;;30.20;47.10;;;;;;4762419;30;20064;-76
2021/07/15 10:46:07;;;;;;;1.33;0.93;;;30.00;45.70;;;;;;4746036;30;20123;-77
2021/07/15 10:48:34;;;;;;;;;;;30.10;46.70;;;;;;4762258;30;20028;-77
2021/07/15 10:51:01;;;;;;;3.50;1.00;;;30.00;44.40;;;;;;4745887;30;20021;-76
2021/07/15 10:53:34;;;;;;;1.58;1.20;;;29.90;46.10;;;;;;4747834;30;20040;-76
2021/07/15 10:56:02;;;;;;;2.42;1.13;;;29.90;46.80;;;;;;4745782;30;20130;-76
2021/07/15 10:58:44;;;;;;;3.35;1.10;;;30.10;45.30;;;;;;4731402;30;20040;-77
2021/07/15 11:01:32;;;;;;;1.77;1.20;;;30.10;45.20;;;;;;4731141;30;20036;-76
2021/07/15 11:04:18;;;;;;;2.10;1.10;;;30.10;43.40;;;;;;4745869;30;20050;-77
2021/07/15 11:06:46;;;;;;;1.52;1.17;;;30.00;44.10;;;;;;4741472;30;20028;-76
2021/07/15 11:09:23;;;;;;;5.32;1.50;;;29.90;44.80;;;;;;4745588;30;20114;-77
2021/07/15 11:11:51;;;;;;;4.38;1.35;;;30.00;47.30;;;;;;4745825;30;20047;-77
2021/07/15 11:14:38;;;;;;;2.97;1.10;;;30.40;45.60;;;;;;4761455;30;20028;-77
2021/07/15 11:17:27;;;;;;;1.65;1.08;;;30.70;46.60;;;;;;4745710;30;20028;-76
2021/07/15 11:20:08;;;;;;;4.53;1.20;;;30.80;42.80;;;;;;4731349;30;20039;-77
2021/07/15 11:22:42;;;;;;;4.63;1.15;;;30.70;43.10;;;;;;4745567;30;20043;-77
2021/07/15 11:25:13;;;;;;;1.42;1.20;;;30.70;43.20;;;;;;4733615;30;20036;-77
2021/07/15 11:27:48;;;;;;;3.70;1.20;;;30.90;43.90;;;;;;4762262;30;20039;-77
2021/07/15 11:30:26;;;;;;;5.53;1.40;;;31.00;43.20;;;;;;4761491;30;20036;-77
2021/07/15 11:32:53;;;;;;;3.15;1.10;;;30.90;42.80;;;;;;4742145;30;20056;-77
2021/07/15 11:35:27;;;;;;;;;;;30.90;44.60;;;;;;4746875;30;20103;-77
2021/07/15 11:38:23;;;;;;;1.77;1.13;;;31.00;43.50;;;;;;4756373;30;19922;-77
2021/07/15 11:40:50;;;;;;;1.27;1.10;;;31.00;43.30;;;;;;4675825;30;20100;-76
2021/07/15 11:43:26;;;;;;;2.58;1.35;;;31.00;42.60;;;;;;4662259;30;20069;-77
2021/07/15 11:46:06;;;;;;;3.92;0.93;;;31.00;43.80;;;;;;4661874;30;20057;-77
2021/07/15 11:48:56;;;;;;;2.45;1.02;;;31.00;44.40;;;;;;4661802;30;20407;-77
2021/07/15 11:51:23;;;;;;;2.25;1.10;;;31.10;42.80;;;;;;4675498;30;20069;-77
2021/07/15 11:54:32;;;;;;;5.57;1.40;;;31.20;43.30;;;;;;4675106;30;20058;-77
2021/07/15 11:57:01;;;;;;;1.98;0.90;;;31.30;43.90;;;;;;4663508;30;20058;-77
2021/07/15 11:59:46;;;;;;;1.95;1.00;;;31.40;42.40;;;;;;4666262;30;20030;-76
2021/07/15 12:02:46;;;;;;;4.65;1.02;;;31.50;44.10;;;;;;4680896;30;20104;-77
2021/07/15 12:05:29;;;;;;;1.75;1.00;;;31.70;40.50;;;;;;4630500;31;20327;-77
2021/07/15 12:08:13;;;;;;;1.60;1.17;;;31.60;42.00;;;;;;4642017;31;20043;-77
2021/07/15 12:10:55;;;;;;;3.10;1.00;;;31.70;41.50;;;;;;4634064;31;20038;-77
2021/07/15 12:13:21;;;;;;;1.75;1.10;;;31.70;41.20;;;;;;4633528;31;20043;-77
2021/07/15 12:15:51;;;;;;;2.77;1.20;;;31.90;42.40;;;;;;4637055;31;20098;-78
2021/07/15 12:18:19;;;;;;;2.40;1.42;;;31.90;41.80;;;;;;4690132;30;20140;-77
2021/07/15 12:20:48;;;;;;;3.53;1.25;;;32.00;43.90;;;;;;4692424;30;20041;-77
2021/07/15 12:23:17;;;;;;;2.05;1.20;;;32.10;42.90;;;;;;4678720;30;20048;-77
2021/07/15 12:25:45;;;;;;;1.77;1.10;;;32.20;41.70;;;;;;4678596;30;20038;-78
2021/07/15 12:28:16;;;;;;;2.38;1.25;;;32.30;44.10;;;;;;4692243;30;20171;-77
2021/07/15 12:30:52;;;;;;;1.75;1.00;;;32.50;40.60;;;;;;4692644;30;20034;-77
2021/07/15 12:33:21;;;;;;;2.75;1.17;;;32.70;41.50;;;;;;4692226;30;20044;-77
2021/07/15 12:35:48;;;;;;;1.65;0.93;;;32.70;41.40;;;;;;4677549;30;20042;-77
2021/07/15 12:38:16;;;;;;;12.30;1.40;;;32.80;41.40;;;;;;4692229;30;20034;-77
2021/07/15 12:40:42;;;;;;;4.68;1.15;;;32.70;39.50;;;;;;4707549;30;20040;-78
2021/07/15 12:43:21;;;;;;;1.73;1.30;;;32.20;41.00;;;;;;4764408;30;20099;-77
2021/07/15 12:45:48;;;;;;;3.35;1.40;;;31.70;39.80;;;;;;4762908;30;20106;-77
2021/07/15 12:48:18;;;;;;;2.45;1.10;;;31.20;41.40;;;;;;4747561;30;20027;-77
2021/07/15 12:50:45;;;;;;;2.50;1.30;;;30.90;41.40;;;;;;4763241;30;20025;-77
2021/07/15 12:53:14;;;;;;;2.80;1.30;;;30.80;43.40;;;;;;4762543;30;20044;-77
2021/07/15 12:55:42;;;;;;;9.02;1.20;;;30.80;43.70;;;;;;4740772;30;20239;-77
2021/07/15 12:58:08;;;;;;;6.65;1.08;;;30.90;41.80;;;;;;4763524;30;20223;-77
2021/07/15 13:00:35;;;;;;;6.15;1.60;;;30.90;41.80;;;;;;4747747;30;20042;-76
2021/07/15 13:03:02;;;;;;;2.05;1.10;;;30.90;42.60;;;;;;4746978;30;20112;-77
2021/07/15 13:05:28;;;;;;;2.85;1.40;;;30.90;42.60;;;;;;4747720;30;20036;-76
2021/07/15 13:07:55;;;;;;;4.28;1.65;;;30.90;42.00;;;;;;4763684;30;20032;-77
2021/07/15 13:10:35;;;;;;;2.17;1.63;;;30.90;41.50;;;;;;4759814;30;20028;-76
2021/07/15 13:15:55;;;;;;;4.97;1.15;;;31.00;41.70;;;;;;4747954;30;20055;-77
2021/07/15 13:18:27;;;;;;;6.53;1.38;;;31.10;43.20;;;;;;4746712;30;20249;-77
2021/07/15 13:20:53;;;;;;;8.32;1.33;;;31.30;43.60;;;;;;4745765;30;20062;-77
2021/07/15 13:23:19;;;;;;;;;;;31.50;42.30;;;;;;4763916;30;20059;-77
2021/07/15 13:25:50;;;;;;;2.60;1.30;;;31.70;43.10;;;;;;4747689;30;20014;-77
2021/07/15 13:28:19;;;;;;;3.22;1.55;;;31.70;41.80;;;;;;4722436;30;20103;-77
2021/07/15 13:30:45;;;;;;;4.07;1.65;;;31.50;39.10;;;;;;4747420;30;20227;-76
2021/07/15 13:33:22;;;;;;;6.00;1.83;;;31.10;40.80;;;;;;4732151;30;20067;-77
2021/07/15 13:35:49;;;;;;;6.18;1.58;;;30.80;42.30;;;;;;4750264;30;20068;-77
2021/07/15 13:38:16;;;;;;;2.63;1.05;;;30.70;41.90;;;;;;4747098;30;20227;-77
2021/07/15 13:40:44;;;;;;;1.77;1.20;;;30.60;41.20;;;;;;4762812;30;20113;-77
2021/07/15 13:43:17;;;;;;;2.65;1.42;;;30.50;40.10;;;;;;4747136;30;20052;-77
2021/07/15 13:45:44;;;;;;;1.70;1.20;;;30.50;42.00;;;;;;4732478;30;20051;-77
2021/07/15 13:48:14;;;;;;;3.58;0.77;;;30.60;42.60;;;;;;4759280;30;20288;-76
2021/07/15 13:50:40;;;;;;;2.65;1.25;;;30.80;41.00;;;;;;4731999;30;20063;-77
2021/07/15 13:53:06;;;;;;;3.10;1.05;;;30.90;41.50;;;;;;4760248;30;20059;-77
2021/07/15 13:55:32;;;;;;;16.60;1.35;;;31.20;40.50;;;;;;4752393;30;20035;-77
2021/07/15 13:57:59;;;;;;;7.27;2.53;;;31.40;40.90;;;;;;4744936;30;20043;-76
2021/07/15 14:00:30;;;;;;;1.95;1.10;;;31.50;40.50;;;;;;4749396;30;20119;-77
2021/07/15 14:02:58;;;;;;;1.73;1.33;;;31.70;40.00;;;;;;4762766;30;20358;-76
2021/07/15 14:05:38;;;;;;;1.98;1.45;;;31.70;39.30;;;;;;4746614;30;20091;-77
2021/07/15 14:08:05;;;;;;;4.68;1.20;;;31.50;39.80;;;;;;4762526;30;20103;-76
2021/07/15 14:10:31;;;;;;;5.63;1.52;;;31.60;39.80;;;;;;4746517;30;20035;-77
2021/07/15 14:12:58;;;;;;;2.00;1.05;;;31.50;40.40;;;;;;4747040;30;20032;-77
2021/07/15 14:15:31;;;;;;;3.85;1.10;;;31.50;41.30;;;;;;4732623;30;20049;-77
2021/07/15 14:18:07;;;;;;;3.33;1.50;;;31.50;41.80;;;;;;4730780;30;20044;-77
2021/07/15 14:20:54;;;;;;;3.50;1.40;;;31.50;41.90;;;;;;4747210;30;20261;-77
2021/07/15 14:23:22;;;;;;;7.70;1.20;;;31.20;42.90;;;;;;4731860;30;20367;-77
2021/07/15 14:25:54;;;;;;;4.32;1.48;;;30.90;39.90;;;;;;4756614;30;20040;-84
2021/07/15 14:28:20;;;;;;;5.10;1.90;;;30.60;42.70;;;;;;4734286;30;20331;-83
2021/07/15 14:30:47;;;;;;;5.07;1.23;;;30.20;42.20;;;;;;4734831;30;20032;-81
2021/07/15 14:33:13;;;;;;;5.82;1.15;;;29.90;41.60;;;;;;4737184;30;20339;-81
2021/07/15 14:35:39;;;;;;;7.27;1.77;;;29.70;42.30;;;;;;4736308;30;20069;-81
2021/07/15 14:38:06;;;;;;;;;;;29.50;43.20;;;;;;4739906;30;20042;-79
2021/07/15 14:40:32;;;;;;;;;;;29.30;45.20;;;;;;4756195;30;19917;-79
2021/07/15 14:42:59;;;;;;;7.47;1.63;;;29.10;44.80;;;;;;4746731;30;20215;-82
2021/07/15 14:45:26;;;;;;;4.03;1.40;;;29.00;47.10;;;;;;4740479;30;20274;-79
2021/07/15 14:47:52;;;;;;;5.40;1.60;;;29.00;45.40;;;;;;4747305;30;20032;-77
2021/07/15 14:50:20;;;;;;;9.45;1.40;;;29.10;45.70;;;;;;4746740;30;20042;-77
2021/07/15 14:52:46;;;;;;;5.82;1.85;;;29.10;48.60;;;;;;4745091;30;20287;-77
2021/07/15 14:55:13;;;;;;;4.13;1.67;;;29.20;45.90;;;;;;4759809;30;20032;-76
2021/07/15 14:57:40;;;;;;;8.52;1.58;;;29.10;46.20;;;;;;4739551;30;20107;-77
2021/07/15 15:00:11;;;;;;;7.68;1.85;;;29.10;44.60;;;;;;4746845;30;20079;-76
2021/07/15 15:02:37;;;;;;;4.40;1.42;;;29.00;44.70;;;;;;4741043;30;20044;-76
2021/07/15 15:05:08;;;;;;;4.75;1.27;;;28.90;45.60;;;;;;4736007;30;20032;-76
2021/07/15 15:07:35;;;;;;;4.03;1.80;;;28.90;46.00;;;;;;4746960;30;20043;-77
2021/07/15 15:10:01;;;;;;;3.20;1.73;;;28.90;46.80;;;;;;4762820;30;20036;-77
2021/07/15 15:12:27;;;;;;;5.40;1.57;;;28.90;46.00;;;;;;4733624;30;20063;-77
2021/07/15 15:14:53;;;;;;;8.07;1.60;;;28.80;48.00;;;;;;4750506;30;20032;-77
2021/07/15 15:17:18;;;;;;;2.63;1.67;;;28.80;46.80;;;;;;4750721;30;20043;-77
2021/07/15 15:19:44;;;;;;;4.87;1.37;;;28.80;48.00;;;;;;4750203;30;20103;-77
2021/07/15 15:22:10;;;;;;;4.97;1.40;;;28.80;49.10;;;;;;4750764;30;20036;-77
2021/07/15 15:24:36;;;;;;;1.73;1.30;;;28.90;48.60;;;;;;4770194;30;20028;-80
2021/07/15 15:27:02;;;;;;;3.60;1.40;;;28.90;47.80;;;;;;4746301;30;20032;-81
2021/07/15 15:29:28;;;;;;;5.83;1.50;;;29.00;48.30;;;;;;4746216;30;20035;-81
2021/07/15 15:31:55;;;;;;;3.35;1.83;;;29.10;47.00;;;;;;4746545;30;20028;-80
2021/07/15 15:34:21;;;;;;;;;;;29.20;46.30;;;;;;4749006;30;20133;-81
2021/07/15 15:36:46;;;;;;;2.93;1.60;;;29.30;46.30;;;;;;4746871;30;19910;-81
2021/07/15 15:39:12;;;;;;;2.33;1.10;;;29.20;45.30;;;;;;4748120;30;20049;-81
2021/07/15 15:41:38;;;;;;;1.92;1.15;;;29.30;45.50;;;;;;4761172;30;20032;-81
2021/07/15 15:44:06;;;;;;;6.57;1.40;;;29.30;46.10;;;;;;4762687;30;20036;-80
2021/07/15 15:46:33;;;;;;;4.43;1.50;;;29.20;44.50;;;;;;4758974;30;20120;-81
2021/07/15 15:48:59;;;;;;;2.90;1.40;;;29.10;45.30;;;;;;4736915;30;20048;-81